Walnut Grove, Pennsylvania
Current Conditions -  °F | °C
As of 2:56 PM on Monday 26 Jan 2015 (Local Time) from KCXY Reporting Station
Overcast Overcast  
Wind Chill: 14°   Ceiling: 1800
Heat Index: 24°   Visibility: 9mi
Dew Point: 18°   Wind: 10mph
Humidity: 77%   Direction: 60°ENE
Pressure: 29.79"   Gusts: NA
Location:  40.4932°N, 77.217°W
Report Text: KCXY 261956Z 06009KT 9SM OVC018 M04/M08 A2979 RMK AO2 SNB02E14 SLP094 P0000 T10441078
Loading
Personal Weather Stations






























Interactive Weather Map New forecast layout! Learn more

10-Day Weather Forecast

Advertisements
Track Severe Weather on mobile